sensor_id;sensor_type;location;lat;lon;timestamp;temperature;humidity
4187;DHT22;2107;52.306;10.484;2022-11-14T00:02:05;5.20;99.90
4187;DHT22;2107;52.306;10.484;2022-11-14T00:04:32;5.20;99.90
4187;DHT22;2107;52.306;10.484;2022-11-14T00:07:00;5.20;99.90
4187;DHT22;2107;52.306;10.484;2022-11-14T00:09:28;5.20;99.90
4187;DHT22;2107;52.306;10.484;2022-11-14T00:11:55;5.20;99.90
4187;DHT22;2107;52.306;10.484;2022-11-14T00:14:22;5.30;99.90
4187;DHT22;2107;52.306;10.484;2022-11-14T00:16:49;5.30;99.90
4187;DHT22;2107;52.306;10.484;2022-11-14T00:19:15;5.40;99.90
4187;DHT22;2107;52.306;10.484;2022-11-14T00:21:42;5.30;99.90
4187;DHT22;2107;52.306;10.484;2022-11-14T00:24:11;5.40;99.90
4187;DHT22;2107;52.306;10.484;2022-11-14T00:26:38;5.40;99.90
4187;DHT22;2107;52.306;10.484;2022-11-14T00:29:05;5.40;99.90
4187;DHT22;2107;52.306;10.484;2022-11-14T00:31:32;5.20;99.90
4187;DHT22;2107;52.306;10.484;2022-11-14T00:33:59;5.30;99.90
4187;DHT22;2107;52.306;10.484;2022-11-14T00:36:25;5.30;99.90
4187;DHT22;2107;52.306;10.484;2022-11-14T00:38:53;5.30;99.90
4187;DHT22;2107;52.306;10.484;2022-11-14T00:41:21;5.20;99.90
4187;DHT22;2107;52.306;10.484;2022-11-14T00:43:48;5.30;99.90
4187;DHT22;2107;52.306;10.484;2022-11-14T00:46:15;5.20;99.90
4187;DHT22;2107;52.306;10.484;2022-11-14T00:48:42;5.20;99.90
4187;DHT22;2107;52.306;10.484;2022-11-14T00:51:09;5.20;99.90
4187;DHT22;2107;52.306;10.484;2022-11-14T00:53:36;5.30;99.90
4187;DHT22;2107;52.306;10.484;2022-11-14T00:56:03;5.30;99.90
4187;DHT22;2107;52.306;10.484;2022-11-14T00:58:32;5.30;99.90
4187;DHT22;2107;52.306;10.484;2022-11-14T01:00:59;5.30;99.90
4187;DHT22;2107;52.306;10.484;2022-11-14T01:03:26;5.30;99.90
4187;DHT22;2107;52.306;10.484;2022-11-14T01:05:52;5.30;99.90
4187;DHT22;2107;52.306;10.484;2022-11-14T01:08:19;5.30;99.90
4187;DHT22;2107;52.306;10.484;2022-11-14T01:10:48;5.40;99.90
4187;DHT22;2107;52.306;10.484;2022-11-14T01:13:17;5.30;99.90
4187;DHT22;2107;52.306;10.484;2022-11-14T01:15:46;5.30;99.90
4187;DHT22;2107;52.306;10.484;2022-11-14T01:18:16;5.30;99.90
4187;DHT22;2107;52.306;10.484;2022-11-14T01:20:45;5.30;99.90
4187;DHT22;2107;52.306;10.484;2022-11-14T01:23:14;5.30;99.90
4187;DHT22;2107;52.306;10.484;2022-11-14T01:25:42;5.30;99.90
4187;DHT22;2107;52.306;10.484;2022-11-14T01:28:11;5.30;99.90
4187;DHT22;2107;52.306;10.484;2022-11-14T01:30:38;5.40;99.90
4187;DHT22;2107;52.306;10.484;2022-11-14T01:33:07;5.20;99.90
4187;DHT22;2107;52.306;10.484;2022-11-14T01:35:36;5.10;99.90
4187;DHT22;2107;52.306;10.484;2022-11-14T01:38:04;5.10;99.90
4187;DHT22;2107;52.306;10.484;2022-11-14T01:40:32;5.10;99.90
4187;DHT22;2107;52.306;10.484;2022-11-14T01:43:22;5.20;99.90
4187;DHT22;2107;52.306;10.484;2022-11-14T01:45:52;5.30;99.90
4187;DHT22;2107;52.306;10.484;2022-11-14T01:48:24;5.30;99.90
4187;DHT22;2107;52.306;10.484;2022-11-14T01:50:56;5.30;99.90
4187;DHT22;2107;52.306;10.484;2022-11-14T01:53:24;5.30;99.90
4187;DHT22;2107;52.306;10.484;2022-11-14T01:55:53;5.30;99.90
4187;DHT22;2107;52.306;10.484;2022-11-14T01:58:21;5.40;99.90
4187;DHT22;2107;52.306;10.484;2022-11-14T02:00:48;5.40;99.90
4187;DHT22;2107;52.306;10.484;2022-11-14T02:03:16;5.40;99.90
4187;DHT22;2107;52.306;10.484;2022-11-14T02:05:45;5.50;99.90
4187;DHT22;2107;52.306;10.484;2022-11-14T02:08:13;5.60;99.90
4187;DHT22;2107;52.306;10.484;2022-11-14T02:10:41;5.50;99.90
4187;DHT22;2107;52.306;10.484;2022-11-14T02:13:08;5.60;99.90
4187;DHT22;2107;52.306;10.484;2022-11-14T02:15:35;5.50;99.90
4187;DHT22;2107;52.306;10.484;2022-11-14T02:18:03;5.50;99.90
4187;DHT22;2107;52.306;10.484;2022-11-14T02:20:35;5.50;99.90
4187;DHT22;2107;52.306;10.484;2022-11-14T02:23:03;5.60;99.90
4187;DHT22;2107;52.306;10.484;2022-11-14T02:25:30;5.60;99.90
4187;DHT22;2107;52.306;10.484;2022-11-14T02:27:57;5.60;99.90
4187;DHT22;2107;52.306;10.484;2022-11-14T02:30:25;5.60;99.90
4187;DHT22;2107;52.306;10.484;2022-11-14T02:32:52;5.60;99.90
4187;DHT22;2107;52.306;10.484;2022-11-14T02:35:20;5.70;99.90
4187;DHT22;2107;52.306;10.484;2022-11-14T02:37:48;5.60;99.90
4187;DHT22;2107;52.306;10.484;2022-11-14T02:40:16;5.70;99.90
4187;DHT22;2107;52.306;10.484;2022-11-14T02:42:43;5.70;99.90
4187;DHT22;2107;52.306;10.484;2022-11-14T02:45:10;5.80;99.90
4187;DHT22;2107;52.306;10.484;2022-11-14T02:47:38;5.80;99.90
4187;DHT22;2107;52.306;10.484;2022-11-14T02:50:05;5.80;99.90
4187;DHT22;2107;52.306;10.484;2022-11-14T02:52:32;5.80;99.90
4187;DHT22;2107;52.306;10.484;2022-11-14T02:55:00;5.80;99.90
4187;DHT22;2107;52.306;10.484;2022-11-14T02:57:27;5.90;99.90
4187;DHT22;2107;52.306;10.484;2022-11-14T02:59:54;5.90;99.90
4187;DHT22;2107;52.306;10.484;2022-11-14T03:02:21;5.90;99.90
4187;DHT22;2107;52.306;10.484;2022-11-14T03:04:48;6.00;99.90
4187;DHT22;2107;52.306;10.484;2022-11-14T03:07:15;6.00;99.90
4187;DHT22;2107;52.306;10.484;2022-11-14T03:09:42;6.00;99.90
4187;DHT22;2107;52.306;10.484;2022-11-14T03:12:10;6.00;99.90
4187;DHT22;2107;52.306;10.484;2022-11-14T03:14:37;6.00;99.90
4187;DHT22;2107;52.306;10.484;2022-11-14T03:17:04;6.10;99.90
4187;DHT22;2107;52.306;10.484;2022-11-14T03:19:31;6.10;99.90
4187;DHT22;2107;52.306;10.484;2022-11-14T03:21:58;6.00;99.90
4187;DHT22;2107;52.306;10.484;2022-11-14T03:24:25;6.10;99.90
4187;DHT22;2107;52.306;10.484;2022-11-14T03:26:51;6.10;99.90
4187;DHT22;2107;52.306;10.484;2022-11-14T03:29:20;6.00;99.90
4187;DHT22;2107;52.306;10.484;2022-11-14T03:31:47;6.10;99.90
4187;DHT22;2107;52.306;10.484;2022-11-14T03:34:14;6.10;99.90
4187;DHT22;2107;52.306;10.484;2022-11-14T03:36:41;6.00;99.90
4187;DHT22;2107;52.306;10.484;2022-11-14T03:39:08;6.10;99.90
4187;DHT22;2107;52.306;10.484;2022-11-14T03:41:34;6.00;99.90
4187;DHT22;2107;52.306;10.484;2022-11-14T03:44:01;6.00;99.90
4187;DHT22;2107;52.306;10.484;2022-11-14T03:46:30;6.00;99.90
4187;DHT22;2107;52.306;10.484;2022-11-14T03:48:57;6.10;99.90
4187;DHT22;2107;52.306;10.484;2022-11-14T03:51:24;6.10;99.90
4187;DHT22;2107;52.306;10.484;2022-11-14T03:53:51;6.00;99.90
4187;DHT22;2107;52.306;10.484;2022-11-14T03:56:18;6.00;99.90
4187;DHT22;2107;52.306;10.484;2022-11-14T03:58:44;6.00;99.90
4187;DHT22;2107;52.306;10.484;2022-11-14T04:01:11;6.00;99.90
4187;DHT22;2107;52.306;10.484;2022-11-14T04:03:40;6.10;99.90
4187;DHT22;2107;52.306;10.484;2022-11-14T04:06:07;6.10;99.90
4187;DHT22;2107;52.306;10.484;2022-11-14T04:08:34;6.10;99.90
4187;DHT22;2107;52.306;10.484;2022-11-14T04:11:02;6.10;99.90
4187;DHT22;2107;52.306;10.484;2022-11-14T04:13:29;6.10;99.90
4187;DHT22;2107;52.306;10.484;2022-11-14T04:15:57;6.10;99.90
4187;DHT22;2107;52.306;10.484;2022-11-14T04:18:24;6.00;99.90
4187;DHT22;2107;52.306;10.484;2022-11-14T04:20:53;6.10;99.90
4187;DHT22;2107;52.306;10.484;2022-11-14T04:23:20;6.00;99.90
4187;DHT22;2107;52.306;10.484;2022-11-14T04:25:47;6.00;99.90
4187;DHT22;2107;52.306;10.484;2022-11-14T04:28:14;6.00;99.90
4187;DHT22;2107;52.306;10.484;2022-11-14T04:30:41;6.10;99.90
4187;DHT22;2107;52.306;10.484;2022-11-14T04:33:09;6.00;99.90
4187;DHT22;2107;52.306;10.484;2022-11-14T04:35:36;6.00;99.90
4187;DHT22;2107;52.306;10.484;2022-11-14T04:38:05;6.00;99.90
4187;DHT22;2107;52.306;10.484;2022-11-14T04:40:32;6.10;99.90
4187;DHT22;2107;52.306;10.484;2022-11-14T04:42:59;5.90;99.90
4187;DHT22;2107;52.306;10.484;2022-11-14T04:45:26;6.00;99.90
4187;DHT22;2107;52.306;10.484;2022-11-14T04:47:53;6.00;99.90
4187;DHT22;2107;52.306;10.484;2022-11-14T04:50:20;5.90;99.90
4187;DHT22;2107;52.306;10.484;2022-11-14T04:52:50;6.00;99.90
4187;DHT22;2107;52.306;10.484;2022-11-14T04:55:19;6.00;99.90
4187;DHT22;2107;52.306;10.484;2022-11-14T04:57:45;6.10;99.90
4187;DHT22;2107;52.306;10.484;2022-11-14T05:00:13;6.00;99.90
4187;DHT22;2107;52.306;10.484;2022-11-14T05:02:40;6.00;99.90
4187;DHT22;2107;52.306;10.484;2022-11-14T05:05:08;6.00;99.90
4187;DHT22;2107;52.306;10.484;2022-11-14T05:07:35;6.00;99.90
4187;DHT22;2107;52.306;10.484;2022-11-14T05:10:02;6.00;99.90
4187;DHT22;2107;52.306;10.484;2022-11-14T05:12:31;5.90;99.90
4187;DHT22;2107;52.306;10.484;2022-11-14T05:14:58;5.80;99.90
4187;DHT22;2107;52.306;10.484;2022-11-14T05:17:25;5.80;99.90
4187;DHT22;2107;52.306;10.484;2022-11-14T05:19:53;5.80;99.90
4187;DHT22;2107;52.306;10.484;2022-11-14T05:22:20;5.80;99.90
4187;DHT22;2107;52.306;10.484;2022-11-14T05:24:46;5.80;99.90
4187;DHT22;2107;52.306;10.484;2022-11-14T05:27:13;5.80;99.90
4187;DHT22;2107;52.306;10.484;2022-11-14T05:29:41;5.80;99.90
4187;DHT22;2107;52.306;10.484;2022-11-14T05:32:09;5.80;99.90
4187;DHT22;2107;52.306;10.484;2022-11-14T05:34:36;5.80;99.90
4187;DHT22;2107;52.306;10.484;2022-11-14T05:37:03;5.70;99.90
4187;DHT22;2107;52.306;10.484;2022-11-14T05:39:30;5.80;99.90
4187;DHT22;2107;52.306;10.484;2022-11-14T05:41:57;5.80;99.90
4187;DHT22;2107;52.306;10.484;2022-11-14T05:44:23;5.80;99.90
4187;DHT22;2107;52.306;10.484;2022-11-14T05:46:52;5.70;99.90
4187;DHT22;2107;52.306;10.484;2022-11-14T05:49:19;5.60;99.90
4187;DHT22;2107;52.306;10.484;2022-11-14T05:51:46;5.70;99.90
4187;DHT22;2107;52.306;10.484;2022-11-14T05:54:13;5.70;99.90
4187;DHT22;2107;52.306;10.484;2022-11-14T05:56:40;5.70;99.90
4187;DHT22;2107;52.306;10.484;2022-11-14T05:59:07;5.60;99.90
4187;DHT22;2107;52.306;10.484;2022-11-14T06:01:34;5.60;99.90
4187;DHT22;2107;52.306;10.484;2022-11-14T06:04:05;5.50;99.90
4187;DHT22;2107;52.306;10.484;2022-11-14T06:06:32;5.50;99.90
4187;DHT22;2107;52.306;10.484;2022-11-14T06:08:59;5.50;99.90
4187;DHT22;2107;52.306;10.484;2022-11-14T06:11:26;5.50;99.90
4187;DHT22;2107;52.306;10.484;2022-11-14T06:13:53;5.60;99.90
4187;DHT22;2107;52.306;10.484;2022-11-14T06:16:20;5.60;99.90
4187;DHT22;2107;52.306;10.484;2022-11-14T06:18:47;5.50;99.90
4187;DHT22;2107;52.306;10.484;2022-11-14T06:21:16;5.50;99.90
4187;DHT22;2107;52.306;10.484;2022-11-14T06:23:45;5.50;99.90
4187;DHT22;2107;52.306;10.484;2022-11-14T06:26:17;5.50;99.90
4187;DHT22;2107;52.306;10.484;2022-11-14T06:28:45;5.60;99.90
4187;DHT22;2107;52.306;10.484;2022-11-14T06:31:12;5.60;99.90
4187;DHT22;2107;52.306;10.484;2022-11-14T06:33:39;5.50;99.90
4187;DHT22;2107;52.306;10.484;2022-11-14T06:36:07;5.50;99.90
4187;DHT22;2107;52.306;10.484;2022-11-14T06:38:36;5.50;99.90
4187;DHT22;2107;52.306;10.484;2022-11-14T06:41:04;5.50;99.90
4187;DHT22;2107;52.306;10.484;2022-11-14T06:43:32;5.50;99.90
4187;DHT22;2107;52.306;10.484;2022-11-14T06:45:59;5.50;99.90
4187;DHT22;2107;52.306;10.484;2022-11-14T06:48:27;5.60;99.90
4187;DHT22;2107;52.306;10.484;2022-11-14T06:50:56;5.60;99.90
4187;DHT22;2107;52.306;10.484;2022-11-14T06:53:24;5.50;99.90
4187;DHT22;2107;52.306;10.484;2022-11-14T06:55:54;5.50;99.90
4187;DHT22;2107;52.306;10.484;2022-11-14T06:58:22;5.50;99.90
4187;DHT22;2107;52.306;10.484;2022-11-14T07:00:50;5.50;99.90
4187;DHT22;2107;52.306;10.484;2022-11-14T07:03:17;5.60;99.90
4187;DHT22;2107;52.306;10.484;2022-11-14T07:05:44;5.60;99.90
4187;DHT22;2107;52.306;10.484;2022-11-14T07:08:11;5.60;99.90
4187;DHT22;2107;52.306;10.484;2022-11-14T07:10:38;5.70;99.90
4187;DHT22;2107;52.306;10.484;2022-11-14T07:13:07;5.60;99.90
4187;DHT22;2107;52.306;10.484;2022-11-14T07:15:36;5.70;99.90
4187;DHT22;2107;52.306;10.484;2022-11-14T07:18:03;5.70;99.90
4187;DHT22;2107;52.306;10.484;2022-11-14T07:20:29;5.70;99.90
4187;DHT22;2107;52.306;10.484;2022-11-14T07:22:56;5.70;99.90
4187;DHT22;2107;52.306;10.484;2022-11-14T07:25:23;5.70;99.90
4187;DHT22;2107;52.306;10.484;2022-11-14T07:27:50;5.80;99.90
4187;DHT22;2107;52.306;10.484;2022-11-14T07:30:19;5.80;99.90
4187;DHT22;2107;52.306;10.484;2022-11-14T07:32:46;5.80;99.90
4187;DHT22;2107;52.306;10.484;2022-11-14T07:35:13;5.80;99.90
4187;DHT22;2107;52.306;10.484;2022-11-14T07:37:40;5.80;99.90
4187;DHT22;2107;52.306;10.484;2022-11-14T07:40:07;5.90;99.90
4187;DHT22;2107;52.306;10.484;2022-11-14T07:42:35;5.80;99.90
4187;DHT22;2107;52.306;10.484;2022-11-14T07:45:02;5.90;99.90
4187;DHT22;2107;52.306;10.484;2022-11-14T07:47:30;5.80;99.90
4187;DHT22;2107;52.306;10.484;2022-11-14T07:49:57;5.90;99.90
4187;DHT22;2107;52.306;10.484;2022-11-14T07:52:24;5.90;99.90
4187;DHT22;2107;52.306;10.484;2022-11-14T07:54:51;5.80;99.90
4187;DHT22;2107;52.306;10.484;2022-11-14T07:57:18;5.90;99.90
4187;DHT22;2107;52.306;10.484;2022-11-14T07:59:44;5.90;99.90
4187;DHT22;2107;52.306;10.484;2022-11-14T08:02:12;5.90;99.90
4187;DHT22;2107;52.306;10.484;2022-11-14T08:04:41;5.80;99.90
4187;DHT22;2107;52.306;10.484;2022-11-14T08:07:08;5.90;99.90
4187;DHT22;2107;52.306;10.484;2022-11-14T08:09:35;5.80;99.90
4187;DHT22;2107;52.306;10.484;2022-11-14T08:12:02;5.90;99.90
4187;DHT22;2107;52.306;10.484;2022-11-14T08:14:29;6.00;99.90
4187;DHT22;2107;52.306;10.484;2022-11-14T08:16:56;6.20;99.90
4187;DHT22;2107;52.306;10.484;2022-11-14T08:19:23;6.30;99.90
4187;DHT22;2107;52.306;10.484;2022-11-14T08:21:51;6.30;99.90
4187;DHT22;2107;52.306;10.484;2022-11-14T08:24:18;6.10;99.90
4187;DHT22;2107;52.306;10.484;2022-11-14T08:26:45;6.10;99.90
4187;DHT22;2107;52.306;10.484;2022-11-14T08:29:12;6.40;99.90
4187;DHT22;2107;52.306;10.484;2022-11-14T08:31:39;6.50;99.90
4187;DHT22;2107;52.306;10.484;2022-11-14T08:34:06;6.40;99.90
4187;DHT22;2107;52.306;10.484;2022-11-14T08:36:34;6.60;99.90
4187;DHT22;2107;52.306;10.484;2022-11-14T08:39:02;6.40;99.90
4187;DHT22;2107;52.306;10.484;2022-11-14T08:41:29;6.70;99.90
4187;DHT22;2107;52.306;10.484;2022-11-14T08:43:56;6.40;99.90
4187;DHT22;2107;52.306;10.484;2022-11-14T08:46:23;6.40;99.90
4187;DHT22;2107;52.306;10.484;2022-11-14T08:48:50;6.60;99.90
4187;DHT22;2107;52.306;10.484;2022-11-14T08:51:17;6.60;99.90
4187;DHT22;2107;52.306;10.484;2022-11-14T08:53:44;6.60;99.90
4187;DHT22;2107;52.306;10.484;2022-11-14T08:56:13;6.80;99.90
4187;DHT22;2107;52.306;10.484;2022-11-14T08:58:39;6.90;99.90
4187;DHT22;2107;52.306;10.484;2022-11-14T09:01:07;6.80;99.90
4187;DHT22;2107;52.306;10.484;2022-11-14T09:03:35;6.90;99.90
4187;DHT22;2107;52.306;10.484;2022-11-14T09:06:02;6.90;99.90
4187;DHT22;2107;52.306;10.484;2022-11-14T09:08:29;6.80;99.90
4187;DHT22;2107;52.306;10.484;2022-11-14T09:10:59;6.80;99.90
4187;DHT22;2107;52.306;10.484;2022-11-14T09:13:28;7.20;99.90
4187;DHT22;2107;52.306;10.484;2022-11-14T09:15:57;7.10;99.90
4187;DHT22;2107;52.306;10.484;2022-11-14T09:18:24;6.80;99.90
4187;DHT22;2107;52.306;10.484;2022-11-14T09:20:51;6.90;99.90
4187;DHT22;2107;52.306;10.484;2022-11-14T09:23:18;6.60;99.90
4187;DHT22;2107;52.306;10.484;2022-11-14T09:25:45;6.70;99.90
4187;DHT22;2107;52.306;10.484;2022-11-14T09:28:12;6.80;99.90
4187;DHT22;2107;52.306;10.484;2022-11-14T09:30:40;6.80;99.90
4187;DHT22;2107;52.306;10.484;2022-11-14T09:33:07;7.00;99.90
4187;DHT22;2107;52.306;10.484;2022-11-14T09:35:34;6.80;99.90
4187;DHT22;2107;52.306;10.484;2022-11-14T09:38:03;6.70;99.90
4187;DHT22;2107;52.306;10.484;2022-11-14T09:40:38;6.80;99.90
4187;DHT22;2107;52.306;10.484;2022-11-14T09:43:29;7.30;99.90
4187;DHT22;2107;52.306;10.484;2022-11-14T09:46:02;7.50;99.90
4187;DHT22;2107;52.306;10.484;2022-11-14T09:48:30;8.20;99.90
4187;DHT22;2107;52.306;10.484;2022-11-14T09:51:05;8.50;99.90
4187;DHT22;2107;52.306;10.484;2022-11-14T09:53:36;9.00;99.90
4187;DHT22;2107;52.306;10.484;2022-11-14T09:56:10;9.50;99.90
4187;DHT22;2107;52.306;10.484;2022-11-14T09:58:39;10.00;99.90
4187;DHT22;2107;52.306;10.484;2022-11-14T10:01:16;10.00;99.90
4187;DHT22;2107;52.306;10.484;2022-11-14T10:03:52;10.00;99.90
4187;DHT22;2107;52.306;10.484;2022-11-14T10:06:25;9.00;99.90
4187;DHT22;2107;52.306;10.484;2022-11-14T10:09:13;8.90;99.90
4187;DHT22;2107;52.306;10.484;2022-11-14T10:11:51;9.20;99.90
4187;DHT22;2107;52.306;10.484;2022-11-14T10:14:34;9.50;99.90
4187;DHT22;2107;52.306;10.484;2022-11-14T10:17:20;10.00;99.90
4187;DHT22;2107;52.306;10.484;2022-11-14T10:19:54;9.70;99.90
4187;DHT22;2107;52.306;10.484;2022-11-14T10:22:44;9.30;99.90
4187;DHT22;2107;52.306;10.484;2022-11-14T10:25:20;9.30;99.90
4187;DHT22;2107;52.306;10.484;2022-11-14T10:27:57;9.40;99.90
4187;DHT22;2107;52.306;10.484;2022-11-14T10:30:33;9.50;99.90
4187;DHT22;2107;52.306;10.484;2022-11-14T10:33:17;9.00;99.90
4187;DHT22;2107;52.306;10.484;2022-11-14T10:35:50;8.90;99.90
4187;DHT22;2107;52.306;10.484;2022-11-14T10:38:25;8.80;99.90
4187;DHT22;2107;52.306;10.484;2022-11-14T10:40:58;8.50;99.90
4187;DHT22;2107;52.306;10.484;2022-11-14T10:43:31;8.80;99.90
4187;DHT22;2107;52.306;10.484;2022-11-14T10:46:04;9.10;99.90
4187;DHT22;2107;52.306;10.484;2022-11-14T10:48:37;9.40;99.90
4187;DHT22;2107;52.306;10.484;2022-11-14T10:51:11;9.00;99.90
4187;DHT22;2107;52.306;10.484;2022-11-14T10:53:51;8.60;99.90
4187;DHT22;2107;52.306;10.484;2022-11-14T10:56:19;8.10;99.90
4187;DHT22;2107;52.306;10.484;2022-11-14T10:58:46;8.40;99.90
4187;DHT22;2107;52.306;10.484;2022-11-14T11:01:36;8.70;99.90
4187;DHT22;2107;52.306;10.484;2022-11-14T11:04:20;8.80;99.90
4187;DHT22;2107;52.306;10.484;2022-11-14T11:06:48;8.60;99.90
4187;DHT22;2107;52.306;10.484;2022-11-14T11:09:17;7.90;99.90
4187;DHT22;2107;52.306;10.484;2022-11-14T11:12:03;7.90;99.90
4187;DHT22;2107;52.306;10.484;2022-11-14T11:14:31;8.00;99.90
4187;DHT22;2107;52.306;10.484;2022-11-14T11:17:22;8.00;99.90
4187;DHT22;2107;52.306;10.484;2022-11-14T11:19:51;8.50;99.90
4187;DHT22;2107;52.306;10.484;2022-11-14T11:22:27;8.70;99.90
4187;DHT22;2107;52.306;10.484;2022-11-14T11:24:55;9.00;99.90
4187;DHT22;2107;52.306;10.484;2022-11-14T11:27:23;8.60;99.90
4187;DHT22;2107;52.306;10.484;2022-11-14T11:30:12;9.00;99.90
4187;DHT22;2107;52.306;10.484;2022-11-14T11:32:43;9.10;99.90
4187;DHT22;2107;52.306;10.484;2022-11-14T11:35:14;9.10;99.90
4187;DHT22;2107;52.306;10.484;2022-11-14T11:37:43;8.90;99.90
4187;DHT22;2107;52.306;10.484;2022-11-14T11:40:20;9.10;99.90
4187;DHT22;2107;52.306;10.484;2022-11-14T11:42:52;9.10;99.90
4187;DHT22;2107;52.306;10.484;2022-11-14T11:45:23;8.90;99.90
4187;DHT22;2107;52.306;10.484;2022-11-14T11:47:55;8.70;99.90
4187;DHT22;2107;52.306;10.484;2022-11-14T11:50:24;8.80;99.90
4187;DHT22;2107;52.306;10.484;2022-11-14T11:53:00;8.90;99.90
4187;DHT22;2107;52.306;10.484;2022-11-14T11:55:32;8.90;99.90
4187;DHT22;2107;52.306;10.484;2022-11-14T11:58:05;8.90;99.90
4187;DHT22;2107;52.306;10.484;2022-11-14T12:00:38;8.70;99.90
4187;DHT22;2107;52.306;10.484;2022-11-14T12:03:10;9.00;99.90
4187;DHT22;2107;52.306;10.484;2022-11-14T12:05:45;9.30;99.90
4187;DHT22;2107;52.306;10.484;2022-11-14T12:08:20;9.60;99.90
4187;DHT22;2107;52.306;10.484;2022-11-14T12:10:52;9.80;99.90
4187;DHT22;2107;52.306;10.484;2022-11-14T12:13:56;9.60;99.90
4187;DHT22;2107;52.306;10.484;2022-11-14T12:16:54;9.40;99.90
4187;DHT22;2107;52.306;10.484;2022-11-14T12:20:08;9.30;99.90
4187;DHT22;2107;52.306;10.484;2022-11-14T12:23:16;9.40;99.90
4187;DHT22;2107;52.306;10.484;2022-11-14T12:26:01;9.30;99.90
4187;DHT22;2107;52.306;10.484;2022-11-14T12:28:44;9.30;99.90
4187;DHT22;2107;52.306;10.484;2022-11-14T12:31:25;9.60;99.90
4187;DHT22;2107;52.306;10.484;2022-11-14T12:33:57;9.60;99.90
4187;DHT22;2107;52.306;10.484;2022-11-14T12:36:28;9.40;99.90
4187;DHT22;2107;52.306;10.484;2022-11-14T12:38:58;9.40;99.90
4187;DHT22;2107;52.306;10.484;2022-11-14T12:41:28;9.60;99.90
4187;DHT22;2107;52.306;10.484;2022-11-14T12:44:17;9.60;99.90
4187;DHT22;2107;52.306;10.484;2022-11-14T12:47:13;9.40;99.90
4187;DHT22;2107;52.306;10.484;2022-11-14T12:49:59;9.30;99.90
4187;DHT22;2107;52.306;10.484;2022-11-14T12:52:47;9.60;99.90
4187;DHT22;2107;52.306;10.484;2022-11-14T12:58:26;10.00;99.90
4187;DHT22;2107;52.306;10.484;2022-11-14T13:01:11;9.90;99.90
4187;DHT22;2107;52.306;10.484;2022-11-14T13:03:51;9.90;99.90
4187;DHT22;2107;52.306;10.484;2022-11-14T13:06:24;9.80;99.90
4187;DHT22;2107;52.306;10.484;2022-11-14T13:11:51;9.90;99.90
4187;DHT22;2107;52.306;10.484;2022-11-14T13:14:49;9.90;99.90
4187;DHT22;2107;52.306;10.484;2022-11-14T13:17:34;10.20;99.90
4187;DHT22;2107;52.306;10.484;2022-11-14T13:20:28;10.40;99.90
4187;DHT22;2107;52.306;10.484;2022-11-14T13:23:52;10.30;99.90
4187;DHT22;2107;52.306;10.484;2022-11-14T13:26:47;10.30;99.90
4187;DHT22;2107;52.306;10.484;2022-11-14T13:35:54;10.30;99.90
4187;DHT22;2107;52.306;10.484;2022-11-14T13:38:49;10.20;99.90
4187;DHT22;2107;52.306;10.484;2022-11-14T13:48:05;10.10;99.90
4187;DHT22;2107;52.306;10.484;2022-11-14T13:50:38;10.00;99.90
4187;DHT22;2107;52.306;10.484;2022-11-14T13:53:14;10.00;99.90
4187;DHT22;2107;52.306;10.484;2022-11-14T13:55:58;10.00;99.90
4187;DHT22;2107;52.306;10.484;2022-11-14T13:58:48;10.00;99.90
4187;DHT22;2107;52.306;10.484;2022-11-14T14:01:32;10.10;99.90
4187;DHT22;2107;52.306;10.484;2022-11-14T14:04:16;10.10;99.90
4187;DHT22;2107;52.306;10.484;2022-11-14T14:06:56;10.20;99.90
4187;DHT22;2107;52.306;10.484;2022-11-14T14:09:32;10.20;99.90
4187;DHT22;2107;52.306;10.484;2022-11-14T14:12:20;10.20;99.90
4187;DHT22;2107;52.306;10.484;2022-11-14T14:15:07;10.20;99.90
4187;DHT22;2107;52.306;10.484;2022-11-14T14:17:44;10.20;99.90
4187;DHT22;2107;52.306;10.484;2022-11-14T14:20:21;10.20;99.90
4187;DHT22;2107;52.306;10.484;2022-11-14T14:22:59;10.00;99.90
4187;DHT22;2107;52.306;10.484;2022-11-14T14:25:40;10.00;99.90
4187;DHT22;2107;52.306;10.484;2022-11-14T14:28:14;9.90;99.90
4187;DHT22;2107;52.306;10.484;2022-11-14T14:31:03;9.80;99.90
4187;DHT22;2107;52.306;10.484;2022-11-14T14:33:39;9.80;99.90
4187;DHT22;2107;52.306;10.484;2022-11-14T14:36:16;9.70;99.90
4187;DHT22;2107;52.306;10.484;2022-11-14T14:38:45;9.60;99.90
4187;DHT22;2107;52.306;10.484;2022-11-14T14:41:16;9.60;99.90
4187;DHT22;2107;52.306;10.484;2022-11-14T14:43:49;9.60;99.90
4187;DHT22;2107;52.306;10.484;2022-11-14T14:46:26;9.60;99.90
4187;DHT22;2107;52.306;10.484;2022-11-14T14:48:54;9.50;99.90
4187;DHT22;2107;52.306;10.484;2022-11-14T14:51:29;9.40;99.90
4187;DHT22;2107;52.306;10.484;2022-11-14T14:53:56;9.40;99.90
4187;DHT22;2107;52.306;10.484;2022-11-14T14:56:25;9.40;99.90
4187;DHT22;2107;52.306;10.484;2022-11-14T14:58:53;9.30;99.90
4187;DHT22;2107;52.306;10.484;2022-11-14T15:01:23;9.30;99.90
4187;DHT22;2107;52.306;10.484;2022-11-14T15:03:55;9.20;99.90
4187;DHT22;2107;52.306;10.484;2022-11-14T15:06:27;9.20;99.90
4187;DHT22;2107;52.306;10.484;2022-11-14T15:08:59;9.10;99.90
4187;DHT22;2107;52.306;10.484;2022-11-14T15:11:29;9.00;99.90
4187;DHT22;2107;52.306;10.484;2022-11-14T15:13:57;9.00;99.90
4187;DHT22;2107;52.306;10.484;2022-11-14T15:16:25;8.90;99.90
4187;DHT22;2107;52.306;10.484;2022-11-14T15:18:54;8.80;99.90
4187;DHT22;2107;52.306;10.484;2022-11-14T15:21:24;8.80;99.90
4187;DHT22;2107;52.306;10.484;2022-11-14T15:24:00;8.60;99.90
4187;DHT22;2107;52.306;10.484;2022-11-14T15:26:29;8.50;99.90
4187;DHT22;2107;52.306;10.484;2022-11-14T15:29:13;8.50;99.90
4187;DHT22;2107;52.306;10.484;2022-11-14T15:31:45;8.30;99.90
4187;DHT22;2107;52.306;10.484;2022-11-14T15:34:34;8.20;99.90
4187;DHT22;2107;52.306;10.484;2022-11-14T15:40:14;8.00;99.90
4187;DHT22;2107;52.306;10.484;2022-11-14T15:42:43;7.90;99.90
4187;DHT22;2107;52.306;10.484;2022-11-14T15:45:20;7.80;99.90
4187;DHT22;2107;52.306;10.484;2022-11-14T15:47:47;7.70;99.90
4187;DHT22;2107;52.306;10.484;2022-11-14T15:50:28;7.70;99.90
4187;DHT22;2107;52.306;10.484;2022-11-14T15:52:58;7.60;99.90
4187;DHT22;2107;52.306;10.484;2022-11-14T15:55:26;7.60;99.90
4187;DHT22;2107;52.306;10.484;2022-11-14T15:57:54;7.60;99.90
4187;DHT22;2107;52.306;10.484;2022-11-14T16:00:24;7.60;99.90
4187;DHT22;2107;52.306;10.484;2022-11-14T16:02:53;7.50;99.90
4187;DHT22;2107;52.306;10.484;2022-11-14T16:05:29;7.40;99.90
4187;DHT22;2107;52.306;10.484;2022-11-14T16:07:56;7.40;99.90
4187;DHT22;2107;52.306;10.484;2022-11-14T16:10:25;7.40;99.90
4187;DHT22;2107;52.306;10.484;2022-11-14T16:12:54;7.60;99.90
4187;DHT22;2107;52.306;10.484;2022-11-14T16:15:21;7.60;99.90
4187;DHT22;2107;52.306;10.484;2022-11-14T16:17:49;7.70;99.90
4187;DHT22;2107;52.306;10.484;2022-11-14T16:20:17;7.90;99.90
4187;DHT22;2107;52.306;10.484;2022-11-14T16:22:46;7.80;99.90
4187;DHT22;2107;52.306;10.484;2022-11-14T16:25:16;7.80;99.90
4187;DHT22;2107;52.306;10.484;2022-11-14T16:27:43;7.80;99.90
4187;DHT22;2107;52.306;10.484;2022-11-14T16:30:13;7.70;99.90
4187;DHT22;2107;52.306;10.484;2022-11-14T16:32:40;7.70;99.90
4187;DHT22;2107;52.306;10.484;2022-11-14T16:35:12;7.60;99.90
4187;DHT22;2107;52.306;10.484;2022-11-14T16:37:40;7.70;99.90
4187;DHT22;2107;52.306;10.484;2022-11-14T16:40:17;7.70;99.90
4187;DHT22;2107;52.306;10.484;2022-11-14T16:42:46;7.60;99.90
4187;DHT22;2107;52.306;10.484;2022-11-14T16:45:14;7.50;99.90
4187;DHT22;2107;52.306;10.484;2022-11-14T16:47:41;7.60;99.90